sensor_id;sensor_type;location;lat;lon;timestamp;P1;durP1;ratioP1;P2;durP2;ratioP2
79646;SDS011;69119;41.718;21.786;2023-12-22T00:02:16;53.45;;;33.25;;
79646;SDS011;69119;41.718;21.786;2023-12-22T00:04:43;56.10;;;33.42;;
79646;SDS011;69119;41.718;21.786;2023-12-22T00:07:09;48.30;;;30.42;;
79646;SDS011;69119;41.718;21.786;2023-12-22T00:09:35;47.20;;;30.00;;
79646;SDS011;69119;41.718;21.786;2023-12-22T00:12:01;44.25;;;26.48;;
79646;SDS011;69119;41.718;21.786;2023-12-22T00:14:27;40.25;;;22.45;;
79646;SDS011;69119;41.718;21.786;2023-12-22T00:16:53;43.80;;;28.20;;
79646;SDS011;69119;41.718;21.786;2023-12-22T00:19:19;47.78;;;27.00;;
79646;SDS011;69119;41.718;21.786;2023-12-22T00:21:45;44.53;;;23.50;;
79646;SDS011;69119;41.718;21.786;2023-12-22T00:24:12;46.85;;;28.73;;
79646;SDS011;69119;41.718;21.786;2023-12-22T00:26:38;48.45;;;29.67;;
79646;SDS011;69119;41.718;21.786;2023-12-22T00:29:04;44.47;;;27.35;;
79646;SDS011;69119;41.718;21.786;2023-12-22T00:31:30;43.78;;;26.95;;
79646;SDS011;69119;41.718;21.786;2023-12-22T00:33:56;46.15;;;25.17;;
79646;SDS011;69119;41.718;21.786;2023-12-22T00:36:22;46.83;;;28.73;;
79646;SDS011;69119;41.718;21.786;2023-12-22T00:38:49;40.33;;;26.42;;
79646;SDS011;69119;41.718;21.786;2023-12-22T00:41:16;45.33;;;24.17;;
79646;SDS011;69119;41.718;21.786;2023-12-22T00:43:42;42.08;;;24.17;;
79646;SDS011;69119;41.718;21.786;2023-12-22T00:46:08;48.13;;;26.55;;
79646;SDS011;69119;41.718;21.786;2023-12-22T00:48:34;42.17;;;25.00;;
79646;SDS011;69119;41.718;21.786;2023-12-22T00:51:00;41.00;;;25.48;;
79646;SDS011;69119;41.718;21.786;2023-12-22T00:53:26;43.55;;;26.08;;
79646;SDS011;69119;41.718;21.786;2023-12-22T00:55:53;43.70;;;24.75;;
79646;SDS011;69119;41.718;21.786;2023-12-22T00:58:19;41.95;;;25.60;;
79646;SDS011;69119;41.718;21.786;2023-12-22T01:00:45;34.47;;;20.77;;
79646;SDS011;69119;41.718;21.786;2023-12-22T01:03:11;40.20;;;24.15;;
79646;SDS011;69119;41.718;21.786;2023-12-22T01:05:38;46.33;;;28.50;;
79646;SDS011;69119;41.718;21.786;2023-12-22T01:08:04;44.78;;;29.63;;
79646;SDS011;69119;41.718;21.786;2023-12-22T01:10:30;49.60;;;29.88;;
79646;SDS011;69119;41.718;21.786;2023-12-22T01:12:56;47.40;;;27.63;;
79646;SDS011;69119;41.718;21.786;2023-12-22T01:15:22;45.40;;;27.65;;
79646;SDS011;69119;41.718;21.786;2023-12-22T01:17:48;48.42;;;28.50;;
79646;SDS011;69119;41.718;21.786;2023-12-22T01:20:14;63.20;;;33.35;;
79646;SDS011;69119;41.718;21.786;2023-12-22T01:22:41;60.97;;;28.60;;
79646;SDS011;69119;41.718;21.786;2023-12-22T01:25:07;53.20;;;29.80;;
79646;SDS011;69119;41.718;21.786;2023-12-22T01:27:33;51.10;;;26.05;;
79646;SDS011;69119;41.718;21.786;2023-12-22T01:29:59;40.08;;;25.27;;
79646;SDS011;69119;41.718;21.786;2023-12-22T01:32:25;41.30;;;24.77;;
79646;SDS011;69119;41.718;21.786;2023-12-22T01:34:51;52.35;;;28.40;;
79646;SDS011;69119;41.718;21.786;2023-12-22T01:37:17;49.47;;;25.75;;
79646;SDS011;69119;41.718;21.786;2023-12-22T01:39:43;41.90;;;22.80;;
79646;SDS011;69119;41.718;21.786;2023-12-22T01:42:09;40.17;;;24.55;;
79646;SDS011;69119;41.718;21.786;2023-12-22T01:44:36;46.50;;;26.40;;
79646;SDS011;69119;41.718;21.786;2023-12-22T01:47:02;43.42;;;26.08;;
79646;SDS011;69119;41.718;21.786;2023-12-22T01:49:28;47.08;;;25.58;;
79646;SDS011;69119;41.718;21.786;2023-12-22T01:51:54;41.88;;;24.45;;
79646;SDS011;69119;41.718;21.786;2023-12-22T01:54:20;40.03;;;24.73;;
79646;SDS011;69119;41.718;21.786;2023-12-22T01:56:47;46.03;;;27.10;;
79646;SDS011;69119;41.718;21.786;2023-12-22T01:59:13;44.05;;;26.02;;
79646;SDS011;69119;41.718;21.786;2023-12-22T02:01:39;44.70;;;28.58;;
79646;SDS011;69119;41.718;21.786;2023-12-22T02:04:06;39.05;;;23.65;;
79646;SDS011;69119;41.718;21.786;2023-12-22T02:06:32;38.90;;;22.55;;
79646;SDS011;69119;41.718;21.786;2023-12-22T02:09:01;44.53;;;28.20;;
79646;SDS011;69119;41.718;21.786;2023-12-22T02:11:29;94.78;;;39.97;;
79646;SDS011;69119;41.718;21.786;2023-12-22T02:13:55;47.70;;;26.70;;
79646;SDS011;69119;41.718;21.786;2023-12-22T02:19:29;36.50;;;21.75;;
79646;SDS011;69119;41.718;21.786;2023-12-22T02:22:03;32.38;;;17.60;;
79646;SDS011;69119;41.718;21.786;2023-12-22T02:24:29;30.35;;;18.20;;
79646;SDS011;69119;41.718;21.786;2023-12-22T02:26:56;30.90;;;19.02;;
79646;SDS011;69119;41.718;21.786;2023-12-22T02:29:26;38.47;;;23.02;;
79646;SDS011;69119;41.718;21.786;2023-12-22T02:31:53;45.00;;;23.10;;
79646;SDS011;69119;41.718;21.786;2023-12-22T02:34:20;34.00;;;20.98;;
79646;SDS011;69119;41.718;21.786;2023-12-22T02:36:47;41.42;;;23.52;;
79646;SDS011;69119;41.718;21.786;2023-12-22T02:39:13;43.80;;;26.60;;
79646;SDS011;69119;41.718;21.786;2023-12-22T02:44:06;45.45;;;26.88;;
79646;SDS011;69119;41.718;21.786;2023-12-22T02:46:32;52.08;;;31.05;;
79646;SDS011;69119;41.718;21.786;2023-12-22T02:51:25;42.88;;;25.70;;
79646;SDS011;69119;41.718;21.786;2023-12-22T02:53:51;41.53;;;24.52;;
79646;SDS011;69119;41.718;21.786;2023-12-22T02:56:17;36.90;;;22.83;;
79646;SDS011;69119;41.718;21.786;2023-12-22T02:58:44;40.10;;;24.65;;
79646;SDS011;69119;41.718;21.786;2023-12-22T03:01:10;44.53;;;25.38;;
79646;SDS011;69119;41.718;21.786;2023-12-22T03:03:36;37.83;;;23.25;;
79646;SDS011;69119;41.718;21.786;2023-12-22T03:06:02;38.55;;;24.55;;
79646;SDS011;69119;41.718;21.786;2023-12-22T03:08:28;35.63;;;23.67;;
79646;SDS011;69119;41.718;21.786;2023-12-22T03:10:54;40.10;;;25.50;;
79646;SDS011;69119;41.718;21.786;2023-12-22T03:13:20;37.55;;;20.63;;
79646;SDS011;69119;41.718;21.786;2023-12-22T03:15:46;39.03;;;25.63;;
79646;SDS011;69119;41.718;21.786;2023-12-22T03:18:12;30.73;;;18.05;;
79646;SDS011;69119;41.718;21.786;2023-12-22T03:20:38;35.35;;;22.88;;
79646;SDS011;69119;41.718;21.786;2023-12-22T03:23:04;38.20;;;24.92;;
79646;SDS011;69119;41.718;21.786;2023-12-22T03:25:31;35.15;;;22.55;;
79646;SDS011;69119;41.718;21.786;2023-12-22T03:27:57;41.55;;;24.83;;
79646;SDS011;69119;41.718;21.786;2023-12-22T03:30:23;37.78;;;24.33;;
79646;SDS011;69119;41.718;21.786;2023-12-22T03:32:49;38.58;;;23.17;;
79646;SDS011;69119;41.718;21.786;2023-12-22T03:35:15;40.75;;;23.83;;
79646;SDS011;69119;41.718;21.786;2023-12-22T03:37:41;37.22;;;23.05;;
79646;SDS011;69119;41.718;21.786;2023-12-22T03:40:08;34.97;;;22.38;;
79646;SDS011;69119;41.718;21.786;2023-12-22T03:45:00;35.78;;;21.35;;
79646;SDS011;69119;41.718;21.786;2023-12-22T03:47:27;31.38;;;19.67;;
79646;SDS011;69119;41.718;21.786;2023-12-22T03:49:53;31.70;;;21.25;;
79646;SDS011;69119;41.718;21.786;2023-12-22T03:52:19;34.33;;;18.80;;
79646;SDS011;69119;41.718;21.786;2023-12-22T03:54:45;32.88;;;22.33;;
79646;SDS011;69119;41.718;21.786;2023-12-22T03:57:11;36.67;;;23.05;;
79646;SDS011;69119;41.718;21.786;2023-12-22T03:59:37;32.55;;;22.27;;
79646;SDS011;69119;41.718;21.786;2023-12-22T04:02:03;39.28;;;25.90;;
79646;SDS011;69119;41.718;21.786;2023-12-22T04:04:29;34.75;;;23.35;;
79646;SDS011;69119;41.718;21.786;2023-12-22T04:06:56;35.15;;;22.55;;
79646;SDS011;69119;41.718;21.786;2023-12-22T04:09:22;34.97;;;20.67;;
79646;SDS011;69119;41.718;21.786;2023-12-22T04:11:48;35.10;;;21.35;;
79646;SDS011;69119;41.718;21.786;2023-12-22T04:14:14;33.05;;;20.70;;
79646;SDS011;69119;41.718;21.786;2023-12-22T04:16:41;31.73;;;19.95;;
79646;SDS011;69119;41.718;21.786;2023-12-22T04:19:07;33.85;;;20.00;;
79646;SDS011;69119;41.718;21.786;2023-12-22T04:21:33;33.30;;;23.08;;
79646;SDS011;69119;41.718;21.786;2023-12-22T04:23:59;35.13;;;21.95;;
79646;SDS011;69119;41.718;21.786;2023-12-22T04:26:25;34.65;;;20.58;;
79646;SDS011;69119;41.718;21.786;2023-12-22T04:28:51;34.83;;;21.27;;
79646;SDS011;69119;41.718;21.786;2023-12-22T04:31:17;37.65;;;24.05;;
79646;SDS011;69119;41.718;21.786;2023-12-22T04:33:43;34.97;;;22.05;;
79646;SDS011;69119;41.718;21.786;2023-12-22T04:36:10;38.03;;;23.10;;
79646;SDS011;69119;41.718;21.786;2023-12-22T04:38:36;33.05;;;23.33;;
79646;SDS011;69119;41.718;21.786;2023-12-22T04:41:02;37.33;;;24.25;;
79646;SDS011;69119;41.718;21.786;2023-12-22T04:43:28;38.10;;;25.05;;
79646;SDS011;69119;41.718;21.786;2023-12-22T04:45:54;39.10;;;25.63;;
79646;SDS011;69119;41.718;21.786;2023-12-22T04:48:20;34.35;;;22.42;;
79646;SDS011;69119;41.718;21.786;2023-12-22T04:50:46;32.53;;;22.25;;
79646;SDS011;69119;41.718;21.786;2023-12-22T04:53:12;36.08;;;22.58;;
79646;SDS011;69119;41.718;21.786;2023-12-22T04:55:39;37.50;;;22.27;;
79646;SDS011;69119;41.718;21.786;2023-12-22T04:58:05;33.53;;;22.27;;
79646;SDS011;69119;41.718;21.786;2023-12-22T05:00:31;35.58;;;24.77;;
79646;SDS011;69119;41.718;21.786;2023-12-22T05:02:57;37.67;;;22.95;;
79646;SDS011;69119;41.718;21.786;2023-12-22T05:05:23;34.20;;;23.55;;
79646;SDS011;69119;41.718;21.786;2023-12-22T05:07:49;37.72;;;24.05;;
79646;SDS011;69119;41.718;21.786;2023-12-22T05:10:15;36.72;;;24.25;;
79646;SDS011;69119;41.718;21.786;2023-12-22T05:12:41;35.50;;;24.35;;
79646;SDS011;69119;41.718;21.786;2023-12-22T05:15:07;35.00;;;19.60;;
79646;SDS011;69119;41.718;21.786;2023-12-22T05:17:33;32.15;;;22.17;;
79646;SDS011;69119;41.718;21.786;2023-12-22T05:19:59;38.25;;;23.48;;
79646;SDS011;69119;41.718;21.786;2023-12-22T05:22:25;39.55;;;23.25;;
79646;SDS011;69119;41.718;21.786;2023-12-22T05:24:54;45.90;;;26.88;;
79646;SDS011;69119;41.718;21.786;2023-12-22T05:27:21;43.30;;;25.35;;
79646;SDS011;69119;41.718;21.786;2023-12-22T05:29:47;41.92;;;25.70;;
79646;SDS011;69119;41.718;21.786;2023-12-22T05:32:13;44.53;;;26.13;;
79646;SDS011;69119;41.718;21.786;2023-12-22T05:34:39;43.53;;;21.95;;
79646;SDS011;69119;41.718;21.786;2023-12-22T05:37:05;42.80;;;25.35;;
79646;SDS011;69119;41.718;21.786;2023-12-22T05:39:31;41.40;;;24.65;;
79646;SDS011;69119;41.718;21.786;2023-12-22T05:41:57;59.00;;;32.72;;
79646;SDS011;69119;41.718;21.786;2023-12-22T05:44:23;47.03;;;28.40;;
79646;SDS011;69119;41.718;21.786;2023-12-22T05:46:54;54.38;;;31.23;;
79646;SDS011;69119;41.718;21.786;2023-12-22T05:49:20;48.60;;;29.70;;
79646;SDS011;69119;41.718;21.786;2023-12-22T05:51:46;51.90;;;29.95;;
79646;SDS011;69119;41.718;21.786;2023-12-22T05:54:12;50.08;;;31.08;;
79646;SDS011;69119;41.718;21.786;2023-12-22T05:56:39;44.58;;;28.33;;
79646;SDS011;69119;41.718;21.786;2023-12-22T05:59:05;47.00;;;23.67;;
79646;SDS011;69119;41.718;21.786;2023-12-22T06:01:31;44.67;;;28.63;;
79646;SDS011;69119;41.718;21.786;2023-12-22T06:03:57;46.10;;;30.08;;
79646;SDS011;69119;41.718;21.786;2023-12-22T06:06:23;54.00;;;28.65;;
79646;SDS011;69119;41.718;21.786;2023-12-22T06:08:49;47.25;;;29.88;;
79646;SDS011;69119;41.718;21.786;2023-12-22T06:11:16;51.22;;;31.30;;
79646;SDS011;69119;41.718;21.786;2023-12-22T06:13:42;43.80;;;31.08;;
79646;SDS011;69119;41.718;21.786;2023-12-22T06:16:11;47.35;;;29.52;;
79646;SDS011;69119;41.718;21.786;2023-12-22T06:18:38;55.88;;;36.50;;
79646;SDS011;69119;41.718;21.786;2023-12-22T06:21:04;62.55;;;34.70;;
79646;SDS011;69119;41.718;21.786;2023-12-22T06:23:30;65.40;;;41.38;;
79646;SDS011;69119;41.718;21.786;2023-12-22T06:25:57;73.88;;;43.47;;
79646;SDS011;69119;41.718;21.786;2023-12-22T06:28:23;68.07;;;37.42;;
79646;SDS011;69119;41.718;21.786;2023-12-22T06:30:49;69.47;;;40.53;;
79646;SDS011;69119;41.718;21.786;2023-12-22T06:33:15;60.90;;;35.88;;
79646;SDS011;69119;41.718;21.786;2023-12-22T06:35:41;61.08;;;37.03;;
79646;SDS011;69119;41.718;21.786;2023-12-22T06:38:07;63.42;;;39.42;;
79646;SDS011;69119;41.718;21.786;2023-12-22T06:40:34;64.75;;;38.60;;
79646;SDS011;69119;41.718;21.786;2023-12-22T06:43:00;53.95;;;35.28;;
79646;SDS011;69119;41.718;21.786;2023-12-22T06:45:26;56.10;;;31.73;;
79646;SDS011;69119;41.718;21.786;2023-12-22T06:47:55;82.50;;;48.10;;
79646;SDS011;69119;41.718;21.786;2023-12-22T06:50:21;76.18;;;45.30;;
79646;SDS011;69119;41.718;21.786;2023-12-22T06:52:47;75.47;;;41.78;;
79646;SDS011;69119;41.718;21.786;2023-12-22T06:55:14;72.03;;;43.78;;
79646;SDS011;69119;41.718;21.786;2023-12-22T06:57:41;63.20;;;38.92;;
79646;SDS011;69119;41.718;21.786;2023-12-22T07:00:08;38.28;;;22.90;;
79646;SDS011;69119;41.718;21.786;2023-12-22T07:02:34;43.65;;;27.92;;
79646;SDS011;69119;41.718;21.786;2023-12-22T07:07:36;42.67;;;28.70;;
79646;SDS011;69119;41.718;21.786;2023-12-22T07:10:02;43.83;;;28.83;;
79646;SDS011;69119;41.718;21.786;2023-12-22T07:12:28;40.00;;;25.92;;
79646;SDS011;69119;41.718;21.786;2023-12-22T07:14:54;45.58;;;28.45;;
79646;SDS011;69119;41.718;21.786;2023-12-22T07:17:20;56.28;;;34.78;;
79646;SDS011;69119;41.718;21.786;2023-12-22T07:19:46;56.05;;;34.45;;
79646;SDS011;69119;41.718;21.786;2023-12-22T07:22:12;50.50;;;29.13;;
79646;SDS011;69119;41.718;21.786;2023-12-22T07:24:40;71.43;;;41.97;;
79646;SDS011;69119;41.718;21.786;2023-12-22T07:27:06;59.47;;;37.45;;
79646;SDS011;69119;41.718;21.786;2023-12-22T07:29:32;70.47;;;42.53;;
79646;SDS011;69119;41.718;21.786;2023-12-22T07:31:58;78.43;;;41.22;;
79646;SDS011;69119;41.718;21.786;2023-12-22T07:34:24;68.40;;;41.10;;
79646;SDS011;69119;41.718;21.786;2023-12-22T07:36:50;77.90;;;46.60;;
79646;SDS011;69119;41.718;21.786;2023-12-22T07:39:18;67.82;;;41.20;;
79646;SDS011;69119;41.718;21.786;2023-12-22T07:41:44;75.32;;;43.97;;
79646;SDS011;69119;41.718;21.786;2023-12-22T07:44:10;211.68;;;95.28;;
79646;SDS011;69119;41.718;21.786;2023-12-22T07:46:36;125.47;;;70.65;;
79646;SDS011;69119;41.718;21.786;2023-12-22T07:49:02;114.28;;;70.20;;
79646;SDS011;69119;41.718;21.786;2023-12-22T07:51:28;111.50;;;65.72;;
79646;SDS011;69119;41.718;21.786;2023-12-22T07:53:54;82.88;;;51.13;;
79646;SDS011;69119;41.718;21.786;2023-12-22T07:56:20;85.65;;;48.17;;
79646;SDS011;69119;41.718;21.786;2023-12-22T07:58:47;93.43;;;51.40;;
79646;SDS011;69119;41.718;21.786;2023-12-22T08:01:14;91.25;;;52.30;;
79646;SDS011;69119;41.718;21.786;2023-12-22T08:03:43;118.90;;;68.57;;
79646;SDS011;69119;41.718;21.786;2023-12-22T08:06:09;162.65;;;89.25;;
79646;SDS011;69119;41.718;21.786;2023-12-22T08:08:35;180.27;;;94.65;;
79646;SDS011;69119;41.718;21.786;2023-12-22T08:11:01;195.07;;;95.75;;
79646;SDS011;69119;41.718;21.786;2023-12-22T08:13:27;202.57;;;100.18;;
79646;SDS011;69119;41.718;21.786;2023-12-22T08:15:53;115.75;;;68.32;;
79646;SDS011;69119;41.718;21.786;2023-12-22T08:18:19;101.22;;;61.33;;
79646;SDS011;69119;41.718;21.786;2023-12-22T08:20:46;110.45;;;61.47;;
79646;SDS011;69119;41.718;21.786;2023-12-22T08:23:14;112.38;;;67.72;;
79646;SDS011;69119;41.718;21.786;2023-12-22T08:25:40;97.75;;;65.80;;
79646;SDS011;69119;41.718;21.786;2023-12-22T08:28:06;70.72;;;45.08;;
79646;SDS011;69119;41.718;21.786;2023-12-22T08:30:33;75.95;;;42.35;;
79646;SDS011;69119;41.718;21.786;2023-12-22T08:32:59;63.08;;;40.00;;
79646;SDS011;69119;41.718;21.786;2023-12-22T08:35:25;83.45;;;49.65;;
79646;SDS011;69119;41.718;21.786;2023-12-22T08:37:51;70.15;;;45.67;;
79646;SDS011;69119;41.718;21.786;2023-12-22T08:40:17;46.17;;;33.08;;
79646;SDS011;69119;41.718;21.786;2023-12-22T08:42:50;47.25;;;31.58;;
79646;SDS011;69119;41.718;21.786;2023-12-22T08:45:19;43.70;;;31.45;;
79646;SDS011;69119;41.718;21.786;2023-12-22T08:50:12;48.72;;;32.50;;
79646;SDS011;69119;41.718;21.786;2023-12-22T08:52:39;56.38;;;39.25;;
79646;SDS011;69119;41.718;21.786;2023-12-22T08:55:06;47.40;;;33.38;;
79646;SDS011;69119;41.718;21.786;2023-12-22T08:57:32;44.20;;;29.35;;
79646;SDS011;69119;41.718;21.786;2023-12-22T08:59:58;39.28;;;26.83;;
79646;SDS011;69119;41.718;21.786;2023-12-22T09:02:24;50.55;;;33.45;;
79646;SDS011;69119;41.718;21.786;2023-12-22T09:04:51;35.60;;;25.30;;
79646;SDS011;69119;41.718;21.786;2023-12-22T09:07:17;32.78;;;23.17;;
79646;SDS011;69119;41.718;21.786;2023-12-22T09:12:10;47.42;;;33.10;;
79646;SDS011;69119;41.718;21.786;2023-12-22T09:14:36;40.28;;;28.45;;
79646;SDS011;69119;41.718;21.786;2023-12-22T09:17:02;46.55;;;31.35;;
79646;SDS011;69119;41.718;21.786;2023-12-22T09:19:28;42.75;;;28.85;;
79646;SDS011;69119;41.718;21.786;2023-12-22T09:21:54;38.30;;;24.95;;
79646;SDS011;69119;41.718;21.786;2023-12-22T09:24:20;35.92;;;23.67;;
79646;SDS011;69119;41.718;21.786;2023-12-22T09:26:46;38.88;;;26.65;;
79646;SDS011;69119;41.718;21.786;2023-12-22T09:29:13;35.42;;;22.15;;
79646;SDS011;69119;41.718;21.786;2023-12-22T09:34:06;32.28;;;20.65;;
79646;SDS011;69119;41.718;21.786;2023-12-22T09:36:32;34.08;;;20.27;;
79646;SDS011;69119;41.718;21.786;2023-12-22T09:38:58;30.15;;;23.00;;
79646;SDS011;69119;41.718;21.786;2023-12-22T09:41:24;30.35;;;21.10;;
79646;SDS011;69119;41.718;21.786;2023-12-22T09:43:50;38.83;;;30.88;;
79646;SDS011;69119;41.718;21.786;2023-12-22T09:46:18;45.47;;;30.20;;
79646;SDS011;69119;41.718;21.786;2023-12-22T09:48:46;47.15;;;30.52;;
79646;SDS011;69119;41.718;21.786;2023-12-22T09:51:12;37.05;;;26.67;;
79646;SDS011;69119;41.718;21.786;2023-12-22T09:53:39;39.92;;;26.52;;
79646;SDS011;69119;41.718;21.786;2023-12-22T09:56:06;39.90;;;29.00;;
79646;SDS011;69119;41.718;21.786;2023-12-22T09:58:33;35.78;;;25.13;;
79646;SDS011;69119;41.718;21.786;2023-12-22T10:01:02;42.05;;;31.20;;
79646;SDS011;69119;41.718;21.786;2023-12-22T10:03:30;46.17;;;33.53;;
79646;SDS011;69119;41.718;21.786;2023-12-22T10:08:22;47.85;;;30.65;;
79646;SDS011;69119;41.718;21.786;2023-12-22T10:10:50;46.58;;;35.25;;
79646;SDS011;69119;41.718;21.786;2023-12-22T10:13:17;45.38;;;33.67;;
79646;SDS011;69119;41.718;21.786;2023-12-22T10:15:43;42.95;;;28.67;;
79646;SDS011;69119;41.718;21.786;2023-12-22T10:18:11;37.42;;;24.40;;
79646;SDS011;69119;41.718;21.786;2023-12-22T10:20:40;46.22;;;29.90;;
79646;SDS011;69119;41.718;21.786;2023-12-22T10:23:06;57.17;;;38.67;;
79646;SDS011;69119;41.718;21.786;2023-12-22T10:25:32;38.22;;;24.15;;
79646;SDS011;69119;41.718;21.786;2023-12-22T10:27:58;38.58;;;24.52;;
79646;SDS011;69119;41.718;21.786;2023-12-22T10:30:24;36.85;;;25.63;;
79646;SDS011;69119;41.718;21.786;2023-12-22T10:32:53;33.75;;;25.08;;
79646;SDS011;69119;41.718;21.786;2023-12-22T10:35:20;54.10;;;41.10;;
79646;SDS011;69119;41.718;21.786;2023-12-22T10:37:46;35.17;;;25.27;;
79646;SDS011;69119;41.718;21.786;2023-12-22T10:40:13;44.15;;;30.58;;
79646;SDS011;69119;41.718;21.786;2023-12-22T10:42:42;46.25;;;30.50;;
79646;SDS011;69119;41.718;21.786;2023-12-22T10:45:08;32.42;;;21.38;;
79646;SDS011;69119;41.718;21.786;2023-12-22T10:47:34;38.10;;;22.60;;
79646;SDS011;69119;41.718;21.786;2023-12-22T10:50:03;39.28;;;31.50;;
79646;SDS011;69119;41.718;21.786;2023-12-22T10:52:29;43.92;;;31.13;;
79646;SDS011;69119;41.718;21.786;2023-12-22T10:57:55;38.03;;;28.40;;
79646;SDS011;69119;41.718;21.786;2023-12-22T11:00:21;29.48;;;21.20;;
79646;SDS011;69119;41.718;21.786;2023-12-22T11:02:49;29.65;;;19.42;;
79646;SDS011;69119;41.718;21.786;2023-12-22T11:05:17;39.05;;;23.42;;
79646;SDS011;69119;41.718;21.786;2023-12-22T11:07:48;25.55;;;16.38;;
79646;SDS011;69119;41.718;21.786;2023-12-22T11:10:16;23.13;;;14.00;;
79646;SDS011;69119;41.718;21.786;2023-12-22T11:12:44;24.90;;;14.07;;
79646;SDS011;69119;41.718;21.786;2023-12-22T11:15:12;26.13;;;16.08;;
79646;SDS011;69119;41.718;21.786;2023-12-22T11:17:39;28.17;;;17.33;;
79646;SDS011;69119;41.718;21.786;2023-12-22T11:20:10;29.48;;;18.55;;
79646;SDS011;69119;41.718;21.786;2023-12-22T11:22:38;32.38;;;20.05;;
79646;SDS011;69119;41.718;21.786;2023-12-22T11:25:05;32.53;;;18.73;;
79646;SDS011;69119;41.718;21.786;2023-12-22T11:27:33;37.80;;;23.65;;
79646;SDS011;69119;41.718;21.786;2023-12-22T11:30:00;30.42;;;18.42;;
79646;SDS011;69119;41.718;21.786;2023-12-22T11:32:28;33.70;;;19.75;;
79646;SDS011;69119;41.718;21.786;2023-12-22T11:34:54;36.25;;;21.65;;
79646;SDS011;69119;41.718;21.786;2023-12-22T11:37:22;35.70;;;21.40;;
79646;SDS011;69119;41.718;21.786;2023-12-22T11:39:48;31.33;;;21.40;;
79646;SDS011;69119;41.718;21.786;2023-12-22T11:44:41;47.75;;;27.25;;
79646;SDS011;69119;41.718;21.786;2023-12-22T11:47:08;32.65;;;22.30;;
79646;SDS011;69119;41.718;21.786;2023-12-22T11:49:34;95.63;;;51.60;;
79646;SDS011;69119;41.718;21.786;2023-12-22T11:52:13;119.70;;;68.30;;
79646;SDS011;69119;41.718;21.786;2023-12-22T11:54:49;109.20;;;61.35;;
79646;SDS011;69119;41.718;21.786;2023-12-22T11:57:28;53.00;;;32.53;;
79646;SDS011;69119;41.718;21.786;2023-12-22T11:59:58;51.83;;;35.40;;
79646;SDS011;69119;41.718;21.786;2023-12-22T12:02:26;38.70;;;28.30;;
79646;SDS011;69119;41.718;21.786;2023-12-22T12:04:52;27.05;;;19.25;;
79646;SDS011;69119;41.718;21.786;2023-12-22T12:09:45;17.92;;;12.23;;
79646;SDS011;69119;41.718;21.786;2023-12-22T12:12:12;19.45;;;13.23;;
79646;SDS011;69119;41.718;21.786;2023-12-22T12:14:40;32.40;;;17.63;;
79646;SDS011;69119;41.718;21.786;2023-12-22T12:17:08;25.52;;;10.80;;
79646;SDS011;69119;41.718;21.786;2023-12-22T12:19:36;23.42;;;12.88;;
79646;SDS011;69119;41.718;21.786;2023-12-22T12:22:03;20.27;;;11.30;;
79646;SDS011;69119;41.718;21.786;2023-12-22T12:24:29;33.97;;;15.10;;
79646;SDS011;69119;41.718;21.786;2023-12-22T12:26:55;18.05;;;9.35;;
79646;SDS011;69119;41.718;21.786;2023-12-22T12:29:21;17.48;;;12.15;;
79646;SDS011;69119;41.718;21.786;2023-12-22T12:31:47;17.10;;;9.18;;
79646;SDS011;69119;41.718;21.786;2023-12-22T12:34:14;8.45;;;4.50;;
79646;SDS011;69119;41.718;21.786;2023-12-22T12:36:42;6.45;;;4.15;;
79646;SDS011;69119;41.718;21.786;2023-12-22T12:39:09;7.38;;;3.90;;
79646;SDS011;69119;41.718;21.786;2023-12-22T12:41:40;5.00;;;3.17;;
79646;SDS011;69119;41.718;21.786;2023-12-22T12:44:08;7.68;;;4.95;;
79646;SDS011;69119;41.718;21.786;2023-12-22T12:51:30;7.05;;;3.33;;
79646;SDS011;69119;41.718;21.786;2023-12-22T12:53:56;5.85;;;2.50;;
79646;SDS011;69119;41.718;21.786;2023-12-22T12:56:22;9.40;;;3.80;;
79646;SDS011;69119;41.718;21.786;2023-12-22T12:58:48;7.63;;;5.03;;
79646;SDS011;69119;41.718;21.786;2023-12-22T13:01:14;8.65;;;5.97;;
79646;SDS011;69119;41.718;21.786;2023-12-22T13:03:51;9.68;;;4.85;;
79646;SDS011;69119;41.718;21.786;2023-12-22T13:06:18;9.77;;;7.18;;
79646;SDS011;69119;41.718;21.786;2023-12-22T13:08:50;10.45;;;6.97;;
79646;SDS011;69119;41.718;21.786;2023-12-22T13:11:22;10.40;;;6.28;;
79646;SDS011;69119;41.718;21.786;2023-12-22T13:13:48;8.55;;;5.05;;
79646;SDS011;69119;41.718;21.786;2023-12-22T13:16:21;7.05;;;5.20;;
79646;SDS011;69119;41.718;21.786;2023-12-22T13:18:50;6.47;;;3.90;;
79646;SDS011;69119;41.718;21.786;2023-12-22T13:21:16;5.65;;;3.55;;
79646;SDS011;69119;41.718;21.786;2023-12-22T13:23:43;6.32;;;4.25;;
79646;SDS011;69119;41.718;21.786;2023-12-22T13:26:18;8.52;;;4.95;;
79646;SDS011;69119;41.718;21.786;2023-12-22T13:28:45;7.00;;;3.35;;
79646;SDS011;69119;41.718;21.786;2023-12-22T13:31:11;6.00;;;3.78;;
79646;SDS011;69119;41.718;21.786;2023-12-22T13:33:39;6.70;;;4.60;;
79646;SDS011;69119;41.718;21.786;2023-12-22T13:36:05;10.30;;;6.72;;
79646;SDS011;69119;41.718;21.786;2023-12-22T13:38:32;9.13;;;5.70;;
79646;SDS011;69119;41.718;21.786;2023-12-22T13:41:00;7.03;;;3.08;;
79646;SDS011;69119;41.718;21.786;2023-12-22T13:43:29;5.88;;;4.13;;
79646;SDS011;69119;41.718;21.786;2023-12-22T13:45:56;10.00;;;5.80;;
79646;SDS011;69119;41.718;21.786;2023-12-22T13:48:22;7.10;;;5.03;;
79646;SDS011;69119;41.718;21.786;2023-12-22T13:50:58;9.02;;;5.75;;
79646;SDS011;69119;41.718;21.786;2023-12-22T13:53:25;9.75;;;6.80;;
79646;SDS011;69119;41.718;21.786;2023-12-22T13:55:57;32.97;;;22.15;;
79646;SDS011;69119;41.718;21.786;2023-12-22T13:58:23;14.57;;;9.30;;
79646;SDS011;69119;41.718;21.786;2023-12-22T14:00:50;10.95;;;7.32;;
79646;SDS011;69119;41.718;21.786;2023-12-22T14:03:16;10.05;;;6.95;;
79646;SDS011;69119;41.718;21.786;2023-12-22T14:05:43;10.88;;;6.75;;
79646;SDS011;69119;41.718;21.786;2023-12-22T14:08:09;16.70;;;10.93;;
79646;SDS011;69119;41.718;21.786;2023-12-22T14:10:35;26.38;;;16.58;;
79646;SDS011;69119;41.718;21.786;2023-12-22T14:13:01;14.60;;;10.00;;
79646;SDS011;69119;41.718;21.786;2023-12-22T14:15:28;21.02;;;13.65;;
79646;SDS011;69119;41.718;21.786;2023-12-22T14:17:54;28.15;;;19.33;;
79646;SDS011;69119;41.718;21.786;2023-12-22T14:20:20;32.90;;;19.88;;
79646;SDS011;69119;41.718;21.786;2023-12-22T14:22:46;31.88;;;21.27;;
79646;SDS011;69119;41.718;21.786;2023-12-22T14:25:13;19.73;;;11.68;;
79646;SDS011;69119;41.718;21.786;2023-12-22T14:27:39;63.50;;;43.38;;
79646;SDS011;69119;41.718;21.786;2023-12-22T14:30:05;76.57;;;45.13;;
79646;SDS011;69119;41.718;21.786;2023-12-22T14:32:31;92.65;;;57.25;;
79646;SDS011;69119;41.718;21.786;2023-12-22T14:34:57;113.00;;;64.40;;
79646;SDS011;69119;41.718;21.786;2023-12-22T14:37:23;137.27;;;82.53;;
79646;SDS011;69119;41.718;21.786;2023-12-22T14:39:50;113.70;;;67.53;;
79646;SDS011;69119;41.718;21.786;2023-12-22T14:42:16;108.18;;;60.85;;
79646;SDS011;69119;41.718;21.786;2023-12-22T14:44:42;134.80;;;77.22;;